Bookmark and Share
Track history (hours):
 

Maike D

Last reported at 2014-Apr-24 09:29 UTC. Time now 2014-Apr-25 06:09 UTC.
Position N 37°33' E 025°54'.

Length 133 m; draft 7.2 m.

Type: Ship (hazmat cat A). MMSI: 305739000.

NotesDate/timePositionNaut miles runAvg speedWind from/ knotsBaromVisibWave heightAir tempDewpointWater temp
2014-Apr-24 09:29N 37°33' E 025°54'1515.7
2014-Apr-24 08:33N 37°19' E 026°01'1715.8
2014-Apr-24 07:30N 37°04' E 026°10'2215.6
2014-Apr-24 06:05N 36°47' E 026°27'915.8
2014-Apr-24 05:30N 36°40' E 026°35'1515.6
2014-Apr-24 04:33N 36°30' E 026°48'1615.9
2014-Apr-24 03:33N 36°19' E 027°03'1616.0
2014-Apr-24 02:33N 36°08' E 027°17'1616.0
2014-Apr-24 01:33N 35°57' E 027°31'1615.9
2014-Apr-24 00:33N 35°46' E 027°46'1615.9
2014-Apr-23 23:33N 35°38' E 028°03'3615.8
2014-Apr-23 21:14N 35°20' E 028°42'1115.7
2014-Apr-23 20:33N 35°15' E 028°54'3615.4
2014-Apr-23 18:14N 34°59' E 029°32'7215.2
2014-Apr-23 13:32N 34°27' E 030°50'1515.2
2014-Apr-23 12:33N 34°20' E 031°07'1515.1
2014-Apr-23 11:33N 34°12' E 031°22'1515.6
2014-Apr-23 10:33N 34°06' E 031°39'1616.0
2014-Apr-23 09:33N 33°58' E 031°56'1815.8
2014-Apr-23 08:24N 33°49' E 032°15'1715.6
2014-Apr-23 07:20N 33°41' E 032°32'4815.5
2014-Apr-23 04:16N 33°21' E 033°24'1715.7
2014-Apr-23 03:11N 33°14' E 033°43'2615.9
2014-Apr-23 01:33N 33°04' E 034°11'3216.0
2014-Apr-22 23:33N 32°56' E 034°48'1312.6
2014-Apr-22 22:33N 32°49' E 035°01'0 0.0
2014-Apr-22 17:23N 32°49' E 035°01'2 0.3
2014-Apr-22 08:25N 32°51' E 034°59'259 7.6
2014-Apr-20 22:20N 31°31' E 030°09'381 7.6
2014-Apr-18 20:15N 36°58' E 026°11'3014.9
2014-Apr-18 18:14N 37°24' E 025°54'2614.3
2014-Apr-18 16:23N 37°50' E 025°47'  

Dump ship's entire track history

sailing weather and tide predictions

Maike D — V2FO4 — position and weather